createdAt,value
2022-10-21T00:01:06.553Z,14.00
2022-10-21T00:03:34.687Z,14.00
2022-10-21T00:06:04.963Z,13.90
2022-10-21T00:08:33.105Z,13.90
2022-10-21T00:11:05.301Z,13.90
2022-10-21T00:13:35.304Z,13.90
2022-10-21T00:16:07.365Z,13.90
2022-10-21T00:18:38.493Z,13.90
2022-10-21T00:21:09.312Z,13.90
2022-10-21T00:23:37.878Z,13.90
2022-10-21T00:26:06.648Z,13.80
2022-10-21T00:28:35.048Z,13.80
2022-10-21T00:31:03.173Z,13.80
2022-10-21T00:33:31.322Z,13.70
2022-10-21T00:36:02.649Z,13.70
2022-10-21T00:38:33.140Z,13.70
2022-10-21T00:41:01.548Z,13.70
2022-10-21T00:43:30.229Z,13.70
2022-10-21T00:46:02.965Z,13.70
2022-10-21T00:48:36.380Z,13.70
2022-10-21T00:51:08.881Z,13.70
2022-10-21T00:53:41.516Z,13.70
2022-10-21T00:56:16.473Z,13.70
2022-10-21T00:58:47.631Z,13.60
2022-10-21T01:01:19.252Z,13.60
2022-10-21T01:03:50.465Z,13.60
2022-10-21T01:06:22.315Z,13.50
2022-10-21T01:08:54.545Z,13.50
2022-10-21T01:11:24.735Z,13.50
2022-10-21T01:14:21.294Z,13.50
2022-10-21T01:17:03.054Z,13.50
2022-10-21T01:20:17.040Z,13.50
2022-10-21T01:23:14.119Z,13.50
2022-10-21T01:26:21.923Z,13.40
2022-10-21T01:29:12.592Z,13.30
2022-10-21T01:31:46.563Z,13.30
2022-10-21T01:34:22.269Z,13.40
2022-10-21T01:36:57.887Z,13.40
2022-10-21T01:39:32.668Z,13.50
2022-10-21T01:42:06.432Z,13.50
2022-10-21T01:44:41.788Z,13.50
2022-10-21T01:47:18.266Z,13.40
2022-10-21T01:49:51.927Z,13.40
2022-10-21T01:52:20.475Z,13.40
2022-10-21T01:54:55.009Z,13.50
2022-10-21T01:57:25.936Z,13.50
2022-10-21T01:59:56.527Z,13.50
2022-10-21T02:02:29.540Z,13.50
2022-10-21T02:05:00.177Z,13.50
2022-10-21T02:07:29.190Z,13.50
2022-10-21T02:09:57.273Z,13.50
2022-10-21T02:12:27.955Z,13.50
2022-10-21T02:14:58.334Z,13.50
2022-10-21T02:17:30.291Z,13.40
2022-10-21T02:20:02.016Z,13.40
2022-10-21T02:22:30.564Z,13.50
2022-10-21T02:25:02.949Z,13.50
2022-10-21T02:27:30.984Z,13.50
2022-10-21T02:30:01.091Z,13.50
2022-10-21T02:32:38.179Z,13.60
2022-10-21T02:35:20.432Z,13.60
2022-10-21T02:37:56.703Z,13.60
2022-10-21T02:40:31.155Z,13.60
2022-10-21T02:43:04.795Z,13.60
2022-10-21T02:45:34.770Z,13.60
2022-10-21T02:48:04.687Z,13.60
2022-10-21T02:50:33.019Z,13.60
2022-10-21T02:53:01.088Z,13.50
2022-10-21T02:55:29.119Z,13.50
2022-10-21T02:57:57.166Z,13.50
2022-10-21T03:00:26.087Z,13.60
2022-10-21T03:02:55.602Z,13.60
2022-10-21T03:05:25.088Z,13.60
2022-10-21T03:07:53.158Z,13.60
2022-10-21T03:10:21.475Z,13.70
2022-10-21T03:12:50.815Z,13.70
2022-10-21T03:15:19.071Z,13.70
2022-10-21T03:17:48.140Z,13.70
2022-10-21T03:20:16.743Z,13.70
2022-10-21T03:22:46.360Z,13.60
2022-10-21T03:25:14.987Z,13.60
2022-10-21T03:27:43.160Z,13.60
2022-10-21T03:30:12.498Z,13.70
2022-10-21T03:32:40.696Z,13.70
2022-10-21T03:35:09.764Z,13.70
2022-10-21T03:37:38.008Z,13.80
2022-10-21T03:40:11.553Z,13.80
2022-10-21T03:42:41.177Z,13.80
2022-10-21T03:45:11.054Z,13.80
2022-10-21T03:47:39.342Z,13.80
2022-10-21T03:50:11.963Z,13.80
2022-10-21T03:52:43.398Z,13.80
2022-10-21T03:55:13.022Z,13.90
2022-10-21T03:57:41.715Z,13.90
2022-10-21T04:02:44.957Z,14.00
2022-10-21T04:05:13.540Z,14.00
2022-10-21T04:07:41.830Z,14.10
2022-10-21T04:10:12.704Z,14.10
2022-10-21T04:12:41.146Z,14.10
2022-10-21T04:15:13.640Z,14.10
2022-10-21T04:17:41.829Z,14.20
2022-10-21T04:20:11.926Z,14.30
2022-10-21T04:22:40.379Z,14.50
2022-10-21T04:25:09.341Z,14.60
2022-10-21T04:27:38.866Z,14.70
2022-10-21T04:30:09.174Z,14.70
2022-10-21T04:32:37.773Z,14.80
2022-10-21T04:35:07.115Z,14.80
2022-10-21T04:37:35.317Z,14.80
2022-10-21T04:40:03.392Z,14.90
2022-10-21T04:42:31.475Z,14.90
2022-10-21T04:45:00.931Z,14.90
2022-10-21T04:47:29.293Z,14.90
2022-10-21T04:49:57.396Z,14.90
2022-10-21T04:52:25.590Z,14.90
2022-10-21T04:54:53.683Z,14.90
2022-10-21T04:57:21.748Z,14.90
2022-10-21T04:59:49.915Z,14.90
2022-10-21T05:02:21.715Z,14.90
2022-10-21T05:04:52.670Z,14.90
2022-10-21T05:07:20.738Z,14.90
2022-10-21T05:09:48.786Z,14.80
2022-10-21T05:12:17.010Z,14.90
2022-10-21T05:14:45.098Z,14.80
2022-10-21T05:17:13.321Z,14.80
2022-10-21T05:19:42.745Z,14.90
2022-10-21T05:22:11.955Z,14.80
2022-10-21T05:24:41.654Z,14.80
2022-10-21T05:27:09.855Z,14.80
2022-10-21T05:29:37.967Z,14.80
2022-10-21T05:32:06.707Z,14.80
2022-10-21T05:34:34.818Z,14.80
2022-10-21T05:37:04.456Z,14.70
2022-10-21T05:39:32.693Z,14.70
2022-10-21T05:42:00.808Z,14.70
2022-10-21T05:44:29.053Z,14.70
2022-10-21T05:46:57.212Z,14.70
2022-10-21T05:49:25.436Z,14.70
2022-10-21T05:51:53.522Z,14.70
2022-10-21T05:54:23.316Z,14.70
2022-10-21T05:56:51.419Z,14.70
2022-10-21T05:59:19.494Z,14.80
2022-10-21T06:01:47.574Z,14.70
2022-10-21T06:04:16.872Z,14.70
2022-10-21T06:06:45.024Z,14.70
2022-10-21T06:09:13.366Z,14.70
2022-10-21T06:11:42.860Z,14.70
2022-10-21T06:14:10.960Z,14.70
2022-10-21T06:16:39.059Z,14.70
2022-10-21T06:19:07.194Z,14.70
2022-10-21T06:21:35.271Z,14.70
2022-10-21T06:24:03.408Z,14.80
2022-10-21T06:26:34.621Z,14.80
2022-10-21T06:29:06.409Z,14.80
2022-10-21T06:31:34.541Z,14.70
2022-10-21T06:34:02.606Z,14.70
2022-10-21T06:36:30.830Z,14.70
2022-10-21T06:38:59.072Z,14.80
2022-10-21T06:41:27.262Z,14.80
2022-10-21T06:43:55.361Z,14.80
2022-10-21T06:46:25.006Z,14.80
2022-10-21T06:48:53.258Z,14.90
2022-10-21T06:51:23.481Z,14.90
2022-10-21T06:53:54.877Z,14.90
2022-10-21T06:56:24.201Z,14.90
2022-10-21T06:58:52.908Z,14.90
2022-10-21T07:01:34.230Z,14.90
2022-10-21T07:04:04.305Z,15.00
2022-10-21T07:09:02.037Z,15.00
2022-10-21T07:11:30.284Z,15.00
2022-10-21T07:13:58.496Z,15.00
2022-10-21T07:16:30.009Z,15.00
2022-10-21T07:18:59.368Z,15.10
2022-10-21T07:21:30.290Z,15.10
2022-10-21T07:23:59.974Z,15.10
2022-10-21T07:26:30.079Z,15.20
2022-10-21T07:29:00.401Z,15.20
2022-10-21T07:31:34.491Z,15.30
2022-10-21T07:36:40.962Z,15.30
2022-10-21T07:39:13.477Z,15.30
2022-10-21T07:41:45.199Z,15.30
2022-10-21T07:44:13.625Z,15.30
2022-10-21T07:46:44.670Z,15.40
2022-10-21T07:49:14.218Z,15.40
2022-10-21T07:51:45.120Z,15.40
2022-10-21T07:54:14.023Z,15.50
2022-10-21T07:56:45.551Z,15.50
2022-10-21T07:59:15.101Z,15.60
2022-10-21T08:01:47.263Z,15.60
2022-10-21T08:04:19.003Z,15.70
2022-10-21T08:06:49.239Z,15.70
2022-10-21T08:09:18.514Z,15.70
2022-10-21T08:11:47.058Z,15.80
2022-10-21T08:14:15.657Z,15.80
2022-10-21T08:16:45.236Z,15.80
2022-10-21T08:19:20.582Z,15.80
2022-10-21T08:21:49.126Z,15.90
2022-10-21T08:24:17.512Z,15.90
2022-10-21T08:26:45.653Z,16.00
2022-10-21T08:29:13.729Z,16.00
2022-10-21T08:31:41.935Z,16.00
2022-10-21T08:34:11.917Z,16.00
2022-10-21T08:36:40.576Z,16.00
2022-10-21T08:39:08.997Z,16.00
2022-10-21T08:42:02.037Z,16.10
2022-10-21T08:44:40.565Z,16.10
2022-10-21T08:47:21.970Z,16.10
2022-10-21T08:49:58.741Z,16.10
2022-10-21T08:52:39.786Z,16.20
2022-10-21T08:55:15.786Z,16.20
2022-10-21T08:57:43.931Z,16.20
2022-10-21T09:00:21.849Z,16.20
2022-10-21T09:03:14.344Z,16.20
2022-10-21T09:06:01.294Z,16.30
2022-10-21T09:08:39.718Z,16.30
2022-10-21T09:11:20.379Z,16.20
2022-10-21T09:14:10.251Z,16.30
2022-10-21T09:16:50.802Z,16.30
2022-10-21T09:19:32.639Z,16.30
2022-10-21T09:22:36.002Z,16.30
2022-10-21T09:25:20.560Z,16.30
2022-10-21T09:27:57.350Z,16.30
2022-10-21T09:30:26.521Z,16.40
2022-10-21T09:32:59.085Z,16.40
2022-10-21T09:35:34.335Z,16.40
2022-10-21T09:38:09.522Z,16.40
2022-10-21T09:40:37.712Z,16.40
2022-10-21T09:43:07.158Z,16.50
2022-10-21T09:45:37.655Z,16.50
2022-10-21T09:48:19.619Z,16.50
2022-10-21T09:50:50.887Z,16.60
2022-10-21T09:53:26.495Z,16.60
2022-10-21T09:56:02.304Z,16.70
2022-10-21T09:58:46.303Z,16.70
2022-10-21T10:01:19.651Z,16.70
2022-10-21T10:03:50.470Z,16.80
2022-10-21T10:06:36.450Z,16.80
2022-10-21T10:09:27.315Z,16.80
2022-10-21T10:11:58.722Z,16.80
2022-10-21T10:14:32.068Z,16.80
2022-10-21T10:17:29.000Z,16.90
2022-10-21T10:20:22.264Z,16.90
2022-10-21T10:23:10.191Z,16.90
2022-10-21T10:25:41.004Z,17.00
2022-10-21T10:28:22.069Z,17.10
2022-10-21T10:30:54.738Z,17.10
2022-10-21T10:33:27.845Z,17.20
2022-10-21T10:35:58.847Z,17.20
2022-10-21T10:38:31.380Z,17.20
2022-10-21T10:41:08.375Z,17.30
2022-10-21T10:43:42.527Z,17.40
2022-10-21T10:46:19.700Z,17.40
2022-10-21T10:48:53.961Z,17.40
2022-10-21T10:51:28.795Z,17.40
2022-10-21T10:54:18.913Z,17.40
2022-10-21T10:56:54.602Z,17.50
2022-10-21T10:59:32.117Z,17.40
2022-10-21T11:02:27.168Z,17.40
2022-10-21T11:05:20.369Z,17.40
2022-10-21T11:07:52.001Z,17.50
2022-10-21T11:10:36.406Z,17.60
2022-10-21T11:13:11.633Z,17.70
2022-10-21T11:16:05.552Z,17.70
2022-10-21T11:18:39.537Z,17.80
2022-10-21T11:21:31.632Z,17.90
2022-10-21T11:24:37.591Z,17.90
2022-10-21T11:27:18.078Z,18.00
2022-10-21T11:30:02.725Z,18.10
2022-10-21T11:32:42.175Z,18.10
2022-10-21T11:35:22.285Z,18.20
2022-10-21T11:38:09.963Z,18.50
2022-10-21T11:40:43.004Z,18.90
2022-10-21T11:43:32.167Z,19.20
2022-10-21T11:46:08.386Z,19.20
2022-10-21T11:49:02.369Z,19.20
2022-10-21T11:51:41.220Z,19.20
2022-10-21T11:55:02.022Z,19.20
2022-10-21T11:57:41.418Z,19.30
2022-10-21T12:00:17.185Z,19.40
2022-10-21T12:03:02.389Z,19.60
2022-10-21T12:05:34.386Z,19.80
2022-10-21T12:08:13.711Z,19.90
2022-10-21T12:10:49.055Z,19.90
2022-10-21T12:13:24.207Z,19.90
2022-10-21T12:15:56.562Z,19.90
2022-10-21T12:18:29.769Z,19.70
2022-10-21T12:20:59.870Z,19.70
2022-10-21T12:23:31.298Z,19.60
2022-10-21T12:26:16.829Z,19.50
2022-10-21T12:28:51.483Z,19.40
2022-10-21T12:31:32.930Z,19.40
2022-10-21T12:34:04.859Z,19.30
2022-10-21T12:36:49.305Z,19.20
2022-10-21T12:39:48.386Z,19.20
2022-10-21T12:42:20.543Z,19.10
2022-10-21T12:44:51.379Z,19.10
2022-10-21T12:47:30.960Z,19.10
2022-10-21T12:50:18.957Z,19.00
2022-10-21T12:52:48.418Z,19.10
2022-10-21T12:55:23.157Z,19.10
2022-10-21T12:58:02.657Z,19.00
2022-10-21T13:00:54.787Z,19.00
2022-10-21T13:03:52.087Z,18.90
2022-10-21T13:06:54.987Z,18.80
2022-10-21T13:09:40.273Z,18.80
2022-10-21T13:12:30.340Z,18.70
2022-10-21T13:15:01.744Z,18.60
2022-10-21T13:17:50.701Z,18.50
2022-10-21T13:20:59.270Z,18.50
2022-10-21T13:23:39.565Z,18.50
2022-10-21T13:26:25.488Z,18.60
2022-10-21T13:29:16.493Z,18.60
2022-10-21T13:31:46.458Z,18.60
2022-10-21T13:34:29.775Z,18.60
2022-10-21T13:36:58.683Z,18.60
2022-10-21T13:39:32.021Z,18.70
2022-10-21T13:42:03.912Z,18.70
2022-10-21T13:44:37.141Z,18.70
2022-10-21T13:47:30.197Z,18.70
2022-10-21T13:50:08.547Z,18.60
2022-10-21T13:52:37.140Z,18.60
2022-10-21T13:55:07.736Z,18.60
2022-10-21T13:57:38.002Z,18.60
2022-10-21T14:00:10.363Z,18.60
2022-10-21T14:02:48.091Z,18.60
2022-10-21T14:05:32.280Z,18.50
2022-10-21T14:08:00.735Z,18.50
2022-10-21T14:10:30.595Z,18.50
2022-10-21T14:13:00.863Z,18.40
2022-10-21T14:15:41.730Z,18.40
2022-10-21T14:18:31.222Z,18.30
2022-10-21T14:21:02.542Z,18.30
2022-10-21T14:23:31.531Z,18.30
2022-10-21T14:26:07.549Z,18.20
2022-10-21T14:28:38.107Z,18.10
2022-10-21T14:31:11.355Z,18.00
2022-10-21T14:33:43.328Z,18.10
2022-10-21T14:36:16.095Z,17.90
2022-10-21T14:38:53.295Z,17.90
2022-10-21T14:41:24.891Z,17.80
2022-10-21T14:43:54.410Z,17.80
2022-10-21T14:46:23.338Z,17.80
2022-10-21T14:48:59.563Z,17.80
2022-10-21T14:51:28.715Z,17.80
2022-10-21T14:54:01.373Z,17.80
2022-10-21T14:56:33.854Z,17.80
2022-10-21T14:59:17.010Z,17.80
2022-10-21T15:01:45.853Z,17.80
2022-10-21T15:04:44.184Z,17.80
2022-10-21T15:07:20.003Z,17.80
2022-10-21T15:10:16.209Z,17.70
2022-10-21T15:12:45.943Z,17.70
2022-10-21T15:15:57.001Z,17.70
2022-10-21T15:18:30.179Z,17.70
2022-10-21T15:21:03.391Z,17.70
2022-10-21T15:23:35.122Z,17.60
2022-10-21T15:26:10.514Z,17.60
2022-10-21T15:28:41.620Z,17.50
2022-10-21T15:31:17.289Z,17.50
2022-10-21T15:33:45.669Z,17.50
2022-10-21T15:36:16.045Z,17.40
2022-10-21T15:38:46.757Z,17.40
2022-10-21T15:41:17.386Z,17.40
2022-10-21T15:43:54.663Z,17.40
2022-10-21T15:46:22.833Z,17.40
2022-10-21T15:48:50.931Z,17.40
2022-10-21T15:51:20.619Z,17.40
2022-10-21T15:53:49.215Z,17.40
2022-10-21T15:56:19.684Z,17.30
2022-10-21T15:58:48.148Z,17.30
2022-10-21T16:01:18.542Z,17.30
2022-10-21T16:03:46.935Z,17.20
2022-10-21T16:06:19.439Z,17.20
2022-10-21T16:08:49.301Z,17.20
2022-10-21T16:11:29.961Z,17.10
2022-10-21T16:14:10.152Z,17.10
2022-10-21T16:16:40.447Z,17.10
2022-10-21T16:19:09.985Z,17.10
2022-10-21T16:21:38.161Z,17.00
2022-10-21T16:24:08.418Z,17.00
2022-10-21T16:26:42.171Z,16.90
2022-10-21T16:29:19.707Z,16.90
2022-10-21T16:31:51.840Z,16.90
2022-10-21T16:34:20.146Z,16.90
2022-10-21T16:36:48.460Z,16.90
2022-10-21T16:39:20.629Z,16.80
2022-10-21T16:41:49.186Z,16.80
2022-10-21T16:44:18.004Z,16.80
2022-10-21T16:46:51.866Z,16.80
2022-10-21T16:49:24.123Z,16.80
2022-10-21T16:51:53.396Z,16.70
2022-10-21T16:54:24.558Z,16.70
2022-10-21T16:56:55.099Z,16.70
2022-10-21T16:59:24.077Z,16.70
2022-10-21T17:01:52.544Z,16.70
2022-10-21T17:04:20.727Z,16.80
2022-10-21T17:06:49.272Z,16.70
2022-10-21T17:09:17.664Z,16.80
2022-10-21T17:11:47.608Z,16.80
2022-10-21T17:14:18.708Z,16.80
2022-10-21T17:16:47.295Z,16.80
2022-10-21T17:19:16.035Z,16.70
2022-10-21T17:21:44.991Z,16.70
2022-10-21T17:24:17.564Z,16.70
2022-10-21T17:26:47.478Z,16.70
2022-10-21T17:29:15.674Z,16.60
2022-10-21T17:31:44.600Z,16.60
2022-10-21T17:34:26.766Z,16.60
2022-10-21T17:36:55.432Z,16.50
2022-10-21T17:39:24.017Z,16.50
2022-10-21T17:41:53.474Z,16.40
2022-10-21T17:44:21.938Z,16.40
2022-10-21T17:46:54.240Z,16.40
2022-10-21T17:49:22.831Z,16.40
2022-10-21T17:51:50.960Z,16.30
2022-10-21T17:54:22.926Z,16.30
2022-10-21T17:56:56.661Z,16.30
2022-10-21T17:59:25.067Z,16.30
2022-10-21T18:01:53.421Z,16.30
2022-10-21T18:04:21.555Z,16.30
2022-10-21T18:06:49.663Z,16.20
2022-10-21T18:09:18.138Z,16.30
2022-10-21T18:11:46.275Z,16.30
2022-10-21T18:14:16.421Z,16.30
2022-10-21T18:16:44.517Z,16.30
2022-10-21T18:19:13.859Z,16.30
2022-10-21T18:21:41.963Z,16.30
2022-10-21T18:24:12.555Z,16.40
2022-10-21T18:26:40.972Z,16.40
2022-10-21T18:29:09.136Z,16.50
2022-10-21T18:31:39.597Z,16.50
2022-10-21T18:34:09.357Z,16.50
2022-10-21T18:36:37.952Z,16.50
2022-10-21T18:39:06.925Z,16.50
2022-10-21T18:41:36.260Z,16.40
2022-10-21T18:44:08.209Z,16.40
2022-10-21T18:46:39.819Z,16.40
2022-10-21T18:49:12.146Z,16.30
2022-10-21T18:51:41.536Z,16.30
2022-10-21T18:54:09.842Z,16.30
2022-10-21T18:56:37.965Z,16.30
2022-10-21T18:59:06.254Z,16.30
2022-10-21T19:01:34.507Z,16.40
2022-10-21T19:04:04.199Z,16.40
2022-10-21T19:06:37.100Z,16.40
2022-10-21T19:09:09.080Z,16.40
2022-10-21T19:11:37.243Z,16.40
2022-10-21T19:14:07.239Z,16.30
2022-10-21T19:16:38.237Z,16.30
2022-10-21T19:19:09.293Z,16.30
2022-10-21T19:21:37.452Z,16.20
2022-10-21T19:24:06.548Z,16.20
2022-10-21T19:26:36.985Z,16.20
2022-10-21T19:29:08.990Z,16.10
2022-10-21T19:31:38.569Z,16.10
2022-10-21T19:34:08.793Z,16.00
2022-10-21T19:36:36.974Z,16.00
2022-10-21T19:39:05.329Z,15.90
2022-10-21T19:41:33.820Z,15.90
2022-10-21T19:44:01.928Z,15.80
2022-10-21T19:46:33.478Z,15.80
2022-10-21T19:49:02.611Z,15.70
2022-10-21T19:51:32.167Z,15.70
2022-10-21T19:54:04.152Z,15.70
2022-10-21T19:56:34.241Z,15.60
2022-10-21T19:59:03.577Z,15.60
2022-10-21T20:01:33.252Z,15.60
2022-10-21T20:04:02.842Z,15.50
2022-10-21T20:06:34.727Z,15.50
2022-10-21T20:09:09.330Z,15.50
2022-10-21T20:11:38.934Z,15.40
2022-10-21T20:14:08.096Z,15.40
2022-10-21T20:16:39.210Z,15.40
2022-10-21T20:19:08.274Z,15.40
2022-10-21T20:21:39.417Z,15.30
2022-10-21T20:24:08.198Z,15.30
2022-10-21T20:26:36.346Z,15.30
2022-10-21T20:29:04.728Z,15.20
2022-10-21T20:31:32.908Z,15.20
2022-10-21T20:34:00.998Z,15.20
2022-10-21T20:36:32.357Z,15.10
2022-10-21T20:39:03.600Z,15.10
2022-10-21T20:41:35.901Z,15.10
2022-10-21T20:44:06.725Z,15.10
2022-10-21T20:46:36.072Z,15.00
2022-10-21T20:49:06.381Z,15.00
2022-10-21T20:51:36.213Z,15.00
2022-10-21T20:54:08.618Z,15.00
2022-10-21T20:56:39.583Z,15.00
2022-10-21T20:59:10.305Z,15.00
2022-10-21T21:01:42.241Z,15.00
2022-10-21T21:04:13.591Z,15.00
2022-10-21T21:06:44.309Z,15.10
2022-10-21T21:09:50.229Z,15.10
2022-10-21T21:12:04.298Z,15.10
2022-10-21T21:14:33.083Z,15.00
2022-10-21T21:17:01.180Z,15.00
2022-10-21T21:19:29.418Z,15.00
2022-10-21T21:21:57.790Z,15.00
2022-10-21T21:24:27.350Z,15.00
2022-10-21T21:26:55.463Z,15.00
2022-10-21T21:29:23.666Z,15.00
2022-10-21T21:31:51.750Z,14.90
2022-10-21T21:34:19.889Z,14.90
2022-10-21T21:36:47.957Z,15.00
2022-10-21T21:39:16.071Z,15.00
2022-10-21T21:41:45.481Z,15.00
2022-10-21T21:44:13.561Z,15.10
2022-10-21T21:46:41.693Z,15.10
2022-10-21T21:49:09.992Z,15.10
2022-10-21T21:51:38.480Z,15.10
2022-10-21T21:54:08.313Z,15.20
2022-10-21T21:56:36.903Z,15.20
2022-10-21T21:59:06.713Z,15.30
2022-10-21T22:01:34.998Z,15.40
2022-10-21T22:04:03.648Z,15.40
2022-10-21T22:06:34.489Z,15.40
2022-10-21T22:09:07.362Z,15.50
2022-10-21T22:11:35.448Z,15.50
2022-10-21T22:14:03.629Z,15.50
2022-10-21T22:16:33.144Z,15.50
2022-10-21T22:19:02.557Z,15.50
2022-10-21T22:21:32.375Z,15.50
2022-10-21T22:24:00.926Z,15.60
2022-10-21T22:26:29.799Z,15.50
2022-10-21T22:28:57.895Z,15.60
2022-10-21T22:31:29.429Z,15.50
2022-10-21T22:34:02.146Z,15.60
2022-10-21T22:36:30.801Z,15.60
2022-10-21T22:38:59.057Z,15.60
2022-10-21T22:41:27.660Z,15.50
2022-10-21T22:43:55.750Z,15.50
2022-10-21T22:46:39.422Z,15.50
2022-10-21T22:49:10.472Z,15.50
2022-10-21T22:51:38.639Z,15.50
2022-10-21T22:54:15.120Z,15.40
2022-10-21T22:56:47.615Z,15.40
2022-10-21T22:59:15.729Z,15.40
2022-10-21T23:01:43.801Z,15.40
2022-10-21T23:04:13.278Z,15.40
2022-10-21T23:06:42.136Z,15.40
2022-10-21T23:09:10.309Z,15.40
2022-10-21T23:11:38.479Z,15.40
2022-10-21T23:14:08.674Z,15.40
2022-10-21T23:16:38.269Z,15.40
2022-10-21T23:19:07.509Z,15.40
2022-10-21T23:21:38.060Z,15.30
2022-10-21T23:24:07.415Z,15.30
2022-10-21T23:26:36.526Z,15.30
2022-10-21T23:29:05.092Z,15.30
2022-10-21T23:31:33.255Z,15.30
2022-10-21T23:34:01.403Z,15.20
2022-10-21T23:36:29.511Z,15.20
2022-10-21T23:38:58.986Z,15.10
2022-10-21T23:41:27.138Z,15.10
2022-10-21T23:43:55.260Z,15.00
2022-10-21T23:46:23.929Z,15.00
2022-10-21T23:48:52.052Z,15.00
2022-10-21T23:51:20.758Z,14.90
2022-10-21T23:53:48.904Z,14.90
2022-10-21T23:56:18.340Z,14.90
2022-10-21T23:58:46.436Z,14.90
